This is the latest recevied weather packets stored in our database for station/object K2ATL. If no packets are shown the sender has not sent any weather packets the latest 10 day(s).
| Time | Temp. | Humidity | Pressure | Rain* | Wind** | Luminosity | Snow |
|---|---|---|---|---|---|---|---|
| 1787765776 | 25.56° C | 68% | 1104.5 hPa | 0 mm | - | 887 W/m² | - |
| 1787765472 | 26.67° C | 62% | 1104.5 hPa | 0 mm | - | 175 W/m² | - |
| 1787765172 | 27.78° C | 60% | 1104.6 hPa | 0 mm | - | 192 W/m² | - |
| 1787764872 | 26.11° C | 64% | 1104.5 hPa | 0 mm | - | 893 W/m² | - |
| 1787764567 | 25.56° C | 61% | 1104.6 hPa | 0 mm | - | 919 W/m² | - |
| 1787764262 | 26.67° C | 57% | 1104.6 hPa | 0 mm | - | 213 W/m² | - |
| 1787763958 | 25.56° C | 62% | 1104.5 hPa | 0 mm | - | 808 W/m² | - |
| 1787763653 | 27.22° C | 68% | 1104.5 hPa | 0 mm | - | 249 W/m² | - |
| 1787763349 | 25.56° C | 61% | 1104.2 hPa | 0 mm | - | 904 W/m² | - |
| 1787763049 | 25° C | 60% | 1104.3 hPa | 0 mm | - | 968 W/m² | - |
| 1787762743 | 25.56° C | 69% | 1104.3 hPa | 0 mm | - | 777 W/m² | - |
| 1787762442 | 25.56° C | 61% | 1104.2 hPa | 0 mm | - | 857 W/m² | - |
| 1787762139 | 25° C | 59% | 1104.2 hPa | 0 mm | - | 852 W/m² | - |
| 1787761835 | 25.56° C | 62% | 1104.5 hPa | 0 mm | - | 836 W/m² | - |
| 1787761530 | 24.44° C | 60% | 1104.5 hPa | 0 mm | - | 824 W/m² | - |
| 1787761225 | 24.44° C | 66% | 1104.7 hPa | 0 mm | - | 829 W/m² | - |
| 1787760924 | 24.44° C | 64% | 1104.5 hPa | 0 mm | - | 814 W/m² | - |
| 1787760622 | 24.44° C | 63% | 1104.6 hPa | 0 mm | - | 762 W/m² | - |
| 1787760321 | 25° C | 63% | 1104.6 hPa | 0 mm | - | 786 W/m² | - |
| 1787760021 | 24.44° C | 66% | 1104.5 hPa | 0 mm | - | 778 W/m² | - |
| 1787759714 | 24.44° C | 67% | 1104.8 hPa | 0 mm | - | 758 W/m² | - |
| 1787759410 | 24.44° C | 68% | 1104.7 hPa | 0 mm | - | 749 W/m² | - |
| 1787759105 | 23.89° C | 70% | 1104.7 hPa | 0 mm | - | 742 W/m² | - |
| 1787758804 | 24.44° C | 66% | 1104.8 hPa | 0 mm | - | 733 W/m² | - |
| 1787758495 | 25° C | 66% | 1105 hPa | 0 mm | - | 721 W/m² | - |
* Rain latest hour (hover to see other rain measurements)
** Current wind speed in m/s (hover to see current wind gust speed)